Latest Coastal Weather Observations for Montague Island

IDN60701

Issued at 7:35 pm EST Thursday 18 September 2014 (issued every 10 minutes, with the page automatically refreshed every 10 minutes)

About coastal observations | Map of coastal stations | Coastal observations for NSW | Marine services | Other Formats
Station Details ID: 069017 Name: MONTAGUE ISLAND LIGHTHOUSE Lat: -36.25 Lon: 150.23 Height: 52.0 m
Data from the previous 72 hours. | See also: Recent months at Montague Island
Date/Time
EST
Temp

°C
Wind Pressure Rain
since 9am
mm
Weather Cloud Vis
km
Sea
Height
m
Swell
Dir
 
Speed
knots
Gust
knots
hPa Trend Height
m
Period
s
Dir
18/07:30pm 13.5 SSW 20 25 1019.5 - 0.0 - - - - - - -
18/07:00pm 13.8 SSW 16 19 1019.1 - 0.0 - - - - - - -
18/06:30pm 14.1 S 17 19 1018.8 - 0.0 - - - - - - -
18/06:00pm 14.6 SSW 18 22 1018.4 - 0.0 - - - - - - -
18/05:30pm 15.0 SW 18 23 1017.8 - 0.0 - - - - - - -
18/05:00pm 15.3 SW 17 22 1017.5 - 0.0 - - - - - - -
18/04:30pm 15.0 S 12 15 1017.4 - 0.0 - - - - - - -
18/04:00pm 16.0 SSW 18 23 1017.0 - 0.0 - - - - - - -
18/03:30pm 16.2 SSW 18 24 1016.7 - 0.0 - - - - - - -
18/03:00pm 16.0 SSW 19 23 1016.5 - 0.0 - - - - - - -
18/02:30pm 16.3 SSW 19 24 1016.4 - 0.0 - - - - - - -
18/02:00pm 16.8 SW 19 24 1016.3 - 0.0 - - - - - - -
18/01:30pm 16.6 SSW 16 20 1016.5 - 0.0 - - - - - - -
18/01:00pm 16.6 SW 17 22 1016.7 - 0.0 - - - - - - -
18/12:30pm 16.1 SW 19 27 1016.9 - 0.0 - - - - - - -
18/12:00pm 15.7 SW 21 25 1017.0 - 0.0 - - - - - - -
18/11:30am 16.1 SW 17 23 1017.2 - 0.0 - - - - - - -
18/11:00am 15.4 SW 19 25 1017.4 - 0.0 - - - - - - -
18/10:30am 15.2 WSW 21 29 1017.2 - 0.0 - - - - - - -
18/10:00am 15.1 SW 18 24 1017.7 - 0.0 - - - - - - -
18/09:30am 14.2 WSW 16 21 1017.7 - 0.0 - - - - - - -
18/09:00am 13.4 WSW 22 28 1017.3 - 0.0 - - - - - - -
18/08:30am 12.7 WSW 17 21 1017.3 - 0.0 - - - - - - -
18/08:00am 12.5 WSW 14 19 1017.2 - 0.0 - - - - - - -
18/07:30am 12.2 WSW 12 15 1017.1 - 0.0 - - - - - - -
18/07:00am 11.7 WSW 17 20 1016.4 - 0.0 - - - - - - -
18/06:30am 11.4 WSW 17 22 1015.8 - 0.0 - - - - - - -
18/06:00am 10.9 W 15 20 1015.6 - 0.0 - - - - - - -
18/05:30am 11.1 WSW 16 19 1015.4 - 0.0 - - - - - - -
18/05:00am 11.1 WSW 15 18 1015.2 - 0.0 - - - - - - -
18/04:30am 11.1 WSW 18 22 1014.8 - 0.0 - - - - - - -
18/04:00am 11.4 WSW 16 23 1014.6 - 0.0 - - - - - - -
18/03:30am 11.1 WSW 12 16 1014.4 - 0.0 - - - - - - -
18/03:00am 11.0 W 12 15 1014.2 - 0.0 - - - - - - -
18/02:30am 10.8 WSW 12 16 1014.3 - 0.0 - - - - - - -
18/02:00am 10.9 WSW 16 19 1014.2 - 0.0 - - - - - - -
18/01:30am 11.2 WSW 20 24 1014.3 - 0.0 - - - - - - -
18/01:00am 11.4 SW 21 24 1014.3 - 0.0 - - - - - - -
18/12:30am 11.5 SW 25 31 1014.0 - 0.0 - - - - - - -
18/12:00am 11.4 SW 24 29 1014.2 - 0.0 - - - - - - -
 
Date/Time
EST
Temp

°C
Wind Pressure Rain
since 9am
mm
Weather Cloud Vis
km
Sea
Height
m
Swell
Dir
 
Speed
knots
Gust
knots
hPa Trend Height
m
Period
s
Dir
17/11:30pm 11.8 SW 29 35 1013.6 - 0.0 - - - - - - -
17/11:00pm 11.8 SW 32 40 1013.3 - 0.0 - - - - - - -
17/10:30pm 11.8 SW 29 35 1013.3 - 0.0 - - - - - - -
17/10:00pm 12.6 SSW 29 36 1012.6 - 0.0 - - - - - - -
17/09:58pm 12.7 SW 29 34 1012.6 - 0.0 - - - - - - -
17/09:30pm 13.0 S 27 31 1012.3 - 0.0 - - - - - - -
17/09:24pm 13.6 S 17 29 1012.2 - 0.0 - - - - - - -
17/09:00pm 13.2 S 21 27 1012.1 - 0.0 - - - - - - -
17/08:40pm 13.6 S 20 27 1011.7 - 0.0 - - - - - - -
17/08:30pm 14.0 SE 17 22 1011.7 - 0.0 - - - - - - -
17/08:15pm 15.3 E 16 18 1011.4 - 0.0 - - - - - - -
17/08:00pm 15.8 NW 2 4 1011.2 - 0.0 - - - - - - -
17/07:30pm 15.7 SSW 4 8 1010.6 - 0.0 - - - - - - -
17/07:00pm 15.9 WNW 10 13 1010.1 - 0.0 - - - - - - -
17/06:30pm 16.5 WNW 14 17 1009.6 - 0.0 - - - - - - -
17/06:00pm 16.9 W 16 22 1009.1 - 0.0 - - - - - - -
17/05:30pm 15.8 NNE 11 15 1009.1 - 0.0 - - - - - - -
17/05:00pm 15.6 NNE 12 14 1008.8 - 0.0 - - - - - - -
17/04:30pm 15.5 NE 12 16 1008.5 - 0.0 - - - - - - -
17/04:00pm 15.9 NE 12 15 1008.3 - 0.0 - - - - - - -
17/03:30pm 15.8 NE 12 14 1008.0 - 0.0 - - - - - - -
17/03:00pm 15.9 ENE 11 13 1007.9 - 0.0 - - - - - - -
17/02:30pm 15.9 E 9 12 1007.9 - 0.0 - - - - - - -
17/02:00pm 15.9 E 9 11 1007.9 - 0.0 - - - - - - -
17/01:30pm 16.5 E 9 11 1008.0 - 0.0 - - - - - - -
17/01:00pm 16.6 E 7 9 1008.1 - 0.0 - - - - - - -
17/12:30pm 16.2 E 7 10 1008.3 - 0.0 - - - - - - -
17/12:00pm 16.5 E 5 7 1008.6 - 0.0 - - - - - - -
17/11:30am 16.4 SSE 6 8 1008.8 - 0.0 - - - - - - -
17/11:00am 16.5 SSE 6 8 1009.2 - 0.0 - - - - - - -
17/10:30am 16.1 SSE 7 10 1009.5 - 0.0 - - - - - - -
17/10:00am 15.9 SE 5 7 1009.8 - 0.0 - - - - - - -
17/09:30am 16.3 SSW 6 9 1010.1 - 0.0 - - - - - - -
17/09:00am 15.9 SW 7 10 1010.3 - 0.4 - - - - - - -
17/08:30am 14.7 SW 8 11 1010.5 - 0.4 - - - - - - -
17/08:00am 14.1 SW 7 10 1010.5 - 0.4 - - - - - - -
17/07:30am 14.7 SW 8 10 1010.2 - 0.4 - - - - - - -
17/07:00am 14.1 SSW 9 13 1009.9 - 0.4 - - - - - - -
17/06:30am 13.9 SSW 7 10 1009.6 - 0.4 - - - - - - -
17/06:00am 13.8 SSW 9 11 1009.4 - 0.4 - - - - - - -
17/05:30am 13.9 SSW 10 12 1009.2 - 0.4 - - - - - - -
17/05:00am 13.7 SSW 9 12 1008.8 - 0.4 - - - - - - -
17/04:30am 13.8 SSW 11 14 1008.4 - 0.4 - - - - - - -
17/04:00am 13.9 SSW 9 10 1008.2 - 0.4 - - - - - - -
17/03:30am 14.0 SSW 9 11 1008.0 - 0.4 - - - - - - -
17/03:00am 13.9 SW 10 12 1007.8 - 0.4 - - - - - - -
17/02:30am 14.1 SW 7 9 1008.0 - 0.4 - - - - - - -
17/02:00am 14.2 SW 8 10 1008.0 - 0.4 - - - - - - -
17/01:30am 14.6 SSW 8 10 1008.1 - 0.4 - - - - - - -
17/01:00am 14.7 SSW 11 13 1008.1 - 0.4 - - - - - - -
17/12:30am 14.7 SSW 11 13 1008.0 - 0.4 - - - - - - -
17/12:00am 14.5 SW 10 12 1007.8 - 0.4 - - - - - - -
 
Date/Time
EST
Temp

°C
Wind Pressure Rain
since 9am
mm
Weather Cloud Vis
km
Sea
Height
m
Swell
Dir
 
Speed
knots
Gust
knots
hPa Trend Height
m
Period
s
Dir
16/11:30pm 14.5 WSW 13 15 1007.5 - 0.4 - - - - - - -
16/11:00pm 14.5 SW 15 18 1007.4 - 0.4 - - - - - - -
16/10:30pm 14.4 SW 15 17 1007.7 - 0.4 - - - - - - -
16/10:00pm 14.3 SW 13 16 1007.6 - 0.4 - - - - - - -
16/09:30pm 14.4 SW 20 25 1007.9 - 0.4 - - - - - - -
16/09:00pm 14.9 SSW 15 22 1007.3 - 0.4 - - - - - - -
16/08:30pm 15.0 SSW 13 17 1007.2 - 0.4 - - - - - - -
16/08:00pm 15.2 S 13 16 1007.0 - 0.4 - - - - - - -
16/07:30pm 15.2 SW 14 17 1006.2 - 0.4 - - - - - - -
16/07:00pm 15.7 S 5 7 1005.8 - 0.4 - - - - - - -
16/06:30pm 15.9 S 9 13 1005.5 - 0.4 - - - - - - -
16/06:00pm 16.5 SW 10 17 1005.3 - 0.4 - - - - - - -
16/05:30pm 17.1 NNE 10 12 1004.8 - 0.4 - - - - - - -
16/05:00pm 16.9 NNW 8 11 1004.9 - 0.4 - - - - - - -
16/04:30pm 17.0 NNE 14 17 1004.4 - 0.0 - - - - - - -
16/04:00pm 16.9 NE 19 23 1004.2 - 0.0 - - - - - - -
16/03:30pm 16.9 NE 21 26 1004.2 - 0.0 - - - - - - -
16/03:00pm 16.9 NE 22 26 1004.4 - 0.0 - - - - - - -
16/02:30pm 17.7 ENE 19 21 1004.7 - 0.0 - - - - - - -
16/02:00pm 17.1 ENE 14 17 1005.2 - 0.0 - - - - - - -
16/01:30pm 18.0 NE 11 15 1005.5 - 0.0 - - - - - - -
16/01:00pm 18.1 NE 11 14 1005.6 - 0.0 - - - - - - -
16/12:30pm 17.4 NNE 12 15 1006.1 - 0.0 - - - - - - -
16/12:00pm 17.3 NNE 13 16 1006.7 - 0.0 - - - - - - -
16/11:30am 17.4 NNE 9 11 1008.1 - 0.0 - - - - - - -
16/11:00am 16.9 NNE 6 8 1008.7 - 0.0 - - - - - - -
16/10:30am 16.8 N 6 9 1009.3 - 0.0 - - - - - - -
16/10:00am 16.8 NNW 8 11 1009.6 - 0.0 - - - - - - -
16/09:30am 16.4 NNW 6 8 1010.0 - 0.0 - - - - - - -
16/09:00am 15.9 N 7 9 1010.1 - 1.6 - - - - - - -
16/08:30am 15.4 N 9 15 1010.2 - 1.6 - - - - - - -
16/08:00am 16.2 NE 10 14 1010.2 - 1.6 - - - - - - -
16/07:30am 15.4 NNE 7 9 1010.2 - 1.6 - - - - - - -
16/07:00am 14.4 N 5 6 1010.6 - 1.6 - - - - - - -
16/06:30am 13.9 NW 5 7 1011.0 - 1.6 - - - - - - -
16/06:00am 13.8 E 3 6 1010.3 - 1.4 Recent precip. - - - - - -
16/05:30am 13.9 NNW 11 14 1011.5 - 1.2 - - - - - - -
16/05:00am 14.2 NW 9 12 1011.7 - 1.2 - - - - - - -
16/04:30am 14.9 NW 8 11 1011.6 - 1.0 - - - - - - -
16/04:00am 14.5 N 10 13 1011.3 - 1.0 - - - - - - -
16/03:30am 14.7 NNW 12 16 1011.5 - 1.0 - - - - - - -
16/03:00am 14.9 N 11 14 1011.3 - 1.0 - - - - - - -
16/02:30am 15.0 N 12 18 1011.5 - 1.0 - - - - - - -
16/02:00am 15.5 N 20 24 1011.6 - 1.0 - - - - - - -
16/01:30am 15.4 NNE 16 19 1011.9 - 1.0 - - - - - - -
16/01:00am 15.5 NNE 13 16 1012.8 - 0.8 - - - - - - -
16/12:30am 15.5 NNE 11 13 1013.4 - 0.8 - - - - - - -
16/12:00am 15.1 N 8 9 1013.7 - 0.8 Recent precip. - - - - - -
 
Date/Time
EST
Temp

°C
Wind Pressure Rain
since 9am
mm
Weather Cloud Vis
km
Sea
Height
m
Swell
Dir
 
Speed
knots
Gust
knots
hPa Trend Height
m
Period
s
Dir
15/11:30pm 15.3 NNW 8 9 1014.1 - 0.6 - - - - - - -
15/11:00pm 15.2 NNW 7 8 1014.5 - 0.6 - - - - - - -
15/10:30pm 15.8 NNW 8 11 1014.7 - 0.0 - - - - - - -
15/10:00pm 16.4 N 15 18 1014.8 - 0.0 - - - - - - -
15/09:30pm 16.2 NNE 16 19 1014.9 - 0.0 - - - - - - -
15/09:00pm 16.3 NNE 15 18 1015.0 - 0.0 - - - - - - -
15/08:30pm 16.2 NNE 13 17 1015.1 - 0.0 - - - - - - -
15/08:00pm 16.2 NNE 13 16 1015.2 - 0.0 - - - - - - -

Other Formats:

Comma delimited format used in spreadsheet applications
http://www.bom.gov.au/fwo/IDN60701/IDN60701.94939.axf

JavaScript Object Notation format (JSON) in row-major order
http://www.bom.gov.au/fwo/IDN60701/IDN60701.94939.json